Time;durP1;ratioP1;P1;durP2;ratioP2;P2;SDS_P1;SDS_P2;PMS_P1;PMS_P2;Temp;Humidity;BMP_temperature;BMP_pressure;BME280_temperature;BME280_humidity;BME280_pressure;Samples;Min_cycle;Max_cycle;Signal;HPM_P1;HPM_P2
2022/11/19 00:01:13;;;;;;;8.98;4.43;;;0.10;99.90;;;;;;5033406;28;20075;-65
2022/11/19 00:03:40;;;;;;;7.55;4.60;;;0.10;99.90;;;;;;5028768;28;20065;-64
2022/11/19 00:06:07;;;;;;;7.30;4.28;;;0.10;99.90;;;;;;5025203;28;20160;-65
2022/11/19 00:08:33;;;;;;;5.60;3.60;;;0.10;99.90;;;;;;5044060;28;20421;-64
2022/11/19 00:11:11;;;;;;;6.35;3.70;;;0.20;99.90;;;;;;5022608;28;20037;-63
2022/11/19 00:13:38;;;;;;;5.30;3.65;;;0.20;99.90;;;;;;5033434;28;20045;-65
2022/11/19 00:16:09;;;;;;;7.40;3.78;;;0.10;99.90;;;;;;5034977;28;21285;-64
2022/11/19 00:18:35;;;;;;;8.10;4.57;;;0.10;99.90;;;;;;5022861;28;20182;-64
2022/11/19 00:21:08;;;;;;;6.50;3.80;;;0.10;99.90;;;;;;5025954;28;20564;-63
2022/11/19 00:23:34;;;;;;;6.70;4.25;;;0.10;99.90;;;;;;5023761;28;20493;-64
2022/11/19 00:26:12;;;;;;;5.78;3.63;;;0.10;99.90;;;;;;5027305;28;20029;-64
2022/11/19 00:28:38;;;;;;;6.88;3.75;;;0.00;99.90;;;;;;5029929;28;20033;-64
2022/11/19 00:31:10;;;;;;;5.68;3.65;;;0.00;99.90;;;;;;5024902;28;20045;-64
2022/11/19 00:33:36;;;;;;;8.80;4.32;;;-0.10;99.90;;;;;;5025213;28;20099;-64
2022/11/19 00:36:04;;;;;;;6.97;3.92;;;-0.10;99.90;;;;;;5023070;28;20095;-63
2022/11/19 00:38:30;;;;;;;6.88;3.92;;;-0.10;99.90;;;;;;5024579;28;20045;-64
2022/11/19 00:40:56;;;;;;;4.97;3.47;;;-0.20;99.90;;;;;;5024921;28;20067;-64
2022/11/19 00:46:06;;;;;;;6.07;3.53;;;-0.40;99.90;;;;;;5025707;28;20045;-65
2022/11/19 00:48:31;;;;;;;6.50;3.42;;;-0.40;99.90;;;;;;5025178;28;20037;-64
2022/11/19 00:50:57;;;;;;;6.43;4.03;;;-0.50;99.90;;;;;;5023981;28;20022;-64
2022/11/19 00:53:23;;;;;;;6.40;3.72;;;-0.50;99.90;;;;;;5025611;28;20096;-63
2022/11/19 00:55:48;;;;;;;5.47;3.97;;;-0.60;99.90;;;;;;5022227;28;20041;-65
2022/11/19 00:58:14;;;;;;;5.60;3.95;;;-0.60;99.90;;;;;;5024297;28;21447;-64
2022/11/19 01:00:39;;;;;;;9.27;4.85;;;-0.60;99.90;;;;;;5028062;28;20038;-64
2022/11/19 01:03:05;;;;;;;8.75;4.00;;;-0.70;99.90;;;;;;5020100;28;20064;-64
2022/11/19 01:05:31;;;;;;;5.72;3.70;;;-0.60;99.90;;;;;;5022791;28;20610;-64
2022/11/19 01:07:57;;;;;;;8.02;4.15;;;-0.60;99.90;;;;;;5029606;28;20060;-64
2022/11/19 01:10:22;;;;;;;7.32;4.43;;;-0.60;99.90;;;;;;5021354;28;20041;-63
2022/11/19 01:15:32;;;;;;;6.95;3.95;;;-0.60;99.90;;;;;;5031566;28;20128;-63
2022/11/19 01:17:58;;;;;;;7.57;4.40;;;-0.60;99.90;;;;;;5030674;28;20083;-64
2022/11/19 01:20:23;;;;;;;8.15;4.07;;;-0.70;99.90;;;;;;5022821;28;20500;-63
2022/11/19 01:22:49;;;;;;;9.43;4.63;;;-0.70;99.90;;;;;;5031217;28;20740;-64
2022/11/19 01:25:14;;;;;;;8.90;4.75;;;-0.70;99.90;;;;;;5037043;28;20041;-64
2022/11/19 01:27:40;;;;;;;7.22;4.28;;;-0.80;99.90;;;;;;5025285;28;20048;-63
2022/11/19 01:30:07;;;;;;;7.28;3.97;;;-0.80;99.90;;;;;;5021157;28;20378;-64
2022/11/19 01:32:32;;;;;;;9.13;4.75;;;-0.80;99.90;;;;;;5022934;28;20489;-65
2022/11/19 01:34:58;;;;;;;7.60;4.38;;;-0.90;99.90;;;;;;5022352;28;20037;-64
2022/11/19 01:37:24;;;;;;;7.20;4.15;;;-0.90;99.90;;;;;;5020830;28;20088;-63
2022/11/19 01:39:50;;;;;;;7.90;4.50;;;-0.90;99.90;;;;;;5020854;28;20033;-64
2022/11/19 01:45:38;;;;;;;7.03;4.03;;;-1.00;99.90;;;;;;5020205;28;20044;-64
2022/11/19 01:48:16;;;;;;;7.63;4.50;;;-1.00;99.90;;;;;;5020416;28;20045;-64
2022/11/19 01:50:47;;;;;;;9.10;4.95;;;-1.00;99.90;;;;;;5019351;28;20037;-64
2022/11/19 01:53:13;;;;;;;7.65;4.15;;;-1.00;99.90;;;;;;5021146;28;20041;-64
2022/11/19 01:55:41;;;;;;;7.63;4.53;;;-1.00;99.90;;;;;;5022341;28;20041;-64
2022/11/19 01:58:08;;;;;;;8.02;4.35;;;-1.00;99.90;;;;;;5024190;28;20121;-64
2022/11/19 02:00:33;;;;;;;7.88;4.88;;;-1.10;99.90;;;;;;5028428;28;20127;-63
2022/11/19 02:02:59;;;;;;;8.23;4.55;;;-1.10;99.90;;;;;;5023210;28;20127;-64
2022/11/19 02:05:26;;;;;;;9.98;4.45;;;-1.10;99.90;;;;;;5024138;28;20051;-63
2022/11/19 02:07:57;;;;;;;7.68;4.43;;;-1.10;99.90;;;;;;5021195;28;20119;-64
2022/11/19 02:10:33;;;;;;;8.73;4.32;;;-1.10;99.90;;;;;;5018685;28;20161;-63
2022/11/19 02:13:18;;;;;;;7.35;4.40;;;-1.10;99.90;;;;;;5019506;28;20037;-64
2022/11/19 02:16:03;;;;;;;9.70;4.22;;;-1.10;99.90;;;;;;5023870;28;20045;-63
2022/11/19 02:18:43;;;;;;;8.05;4.00;;;-1.20;99.90;;;;;;5033079;28;20045;-63
2022/11/19 02:21:12;;;;;;;7.30;4.07;;;-1.20;99.90;;;;;;5040580;28;20156;-63
2022/11/19 02:23:49;;;;;;;7.95;4.72;;;-1.20;99.90;;;;;;5021631;28;20033;-63
2022/11/19 02:26:47;;;;;;;7.40;3.80;;;-1.20;99.90;;;;;;5021155;28;20046;-64
2022/11/19 02:29:29;;;;;;;8.52;4.15;;;-1.30;99.90;;;;;;5019824;28;20064;-64
2022/11/19 02:32:14;;;;;;;8.20;4.35;;;-1.30;99.90;;;;;;5038116;28;20036;-63
2022/11/19 02:34:56;;;;;;;7.70;4.47;;;-1.30;99.90;;;;;;5024370;28;20029;-62
2022/11/19 02:37:32;;;;;;;9.00;4.30;;;-1.30;99.90;;;;;;5006122;28;20711;-64
2022/11/19 02:40:10;;;;;;;7.93;4.50;;;-1.30;99.90;;;;;;5027847;28;20060;-64
2022/11/19 02:43:00;;;;;;;7.35;4.05;;;-1.30;99.90;;;;;;5022614;28;21262;-62
2022/11/19 02:45:36;;;;;;;6.10;3.90;;;-1.30;99.90;;;;;;5022282;28;20045;-65
2022/11/19 02:48:16;;;;;;;8.40;4.18;;;-1.30;99.90;;;;;;5019553;28;20060;-63
2022/11/19 02:50:50;;;;;;;10.65;4.15;;;-1.40;99.90;;;;;;5018665;28;20037;-63
2022/11/19 02:53:16;;;;;;;7.45;4.15;;;-1.40;99.90;;;;;;5019560;28;20108;-63
2022/11/19 02:56:09;;;;;;;7.32;4.38;;;-1.40;99.90;;;;;;5037091;28;20163;-63
2022/11/19 03:04:31;;;;;;;7.80;4.22;;;-1.50;99.90;;;;;;5012765;28;20042;-65
2022/11/19 03:07:15;;;;;;;8.20;4.05;;;-1.30;99.90;;;;;;5018883;28;20045;-64
2022/11/19 03:09:53;;;;;;;7.10;3.88;;;-0.90;99.90;;;;;;5023312;28;20648;-65
2022/11/19 03:12:45;;;;;;;7.05;3.53;;;-0.80;99.90;;;;;;5021592;28;20041;-63
2022/11/19 03:18:15;;;;;;;8.68;4.10;;;-0.80;99.90;;;;;;5022172;28;20041;-64
2022/11/19 03:20:47;;;;;;;7.07;4.47;;;-0.90;99.90;;;;;;5026636;28;20061;-64
2022/11/19 03:23:22;;;;;;;9.07;4.35;;;-0.90;99.90;;;;;;5044516;28;20132;-63
2022/11/19 03:25:54;;;;;;;8.82;4.90;;;-1.00;99.90;;;;;;5035595;28;21301;-64
2022/11/19 03:28:24;;;;;;;8.05;4.72;;;-1.00;99.90;;;;;;5026568;28;20041;-64
2022/11/19 03:30:51;;;;;;;8.75;3.92;;;-1.00;99.90;;;;;;5027721;28;20049;-63
2022/11/19 03:33:31;;;;;;;7.82;4.13;;;-1.00;99.90;;;;;;5026683;28;20060;-63
2022/11/19 03:36:02;;;;;;;9.65;4.40;;;-1.10;99.90;;;;;;5028233;28;21428;-64
2022/11/19 03:38:36;;;;;;;7.15;4.78;;;-1.10;99.90;;;;;;5027236;28;20046;-64
2022/11/19 03:41:04;;;;;;;8.10;4.53;;;-1.10;99.90;;;;;;5028091;28;20128;-63
2022/11/19 03:43:34;;;;;;;8.77;4.78;;;-1.10;99.90;;;;;;5025426;28;20121;-63
2022/11/19 03:46:03;;;;;;;8.80;4.45;;;-1.10;99.90;;;;;;5031444;28;20512;-64
2022/11/19 03:48:30;;;;;;;7.22;4.15;;;-1.10;99.90;;;;;;5030224;28;20080;-65
2022/11/19 03:51:02;;;;;;;7.82;4.30;;;-1.10;99.90;;;;;;5026410;28;20385;-64
2022/11/19 03:53:28;;;;;;;10.77;4.65;;;-1.10;99.90;;;;;;5047003;28;20559;-64
2022/11/19 03:55:58;;;;;;;8.65;4.28;;;-1.10;99.90;;;;;;5026047;28;20038;-63
2022/11/19 03:58:25;;;;;;;8.43;4.38;;;-1.10;99.90;;;;;;5031441;28;20095;-64
2022/11/19 04:00:51;;;;;;;8.27;4.38;;;-1.20;99.90;;;;;;5031863;28;20038;-64
2022/11/19 04:03:17;;;;;;;8.95;4.50;;;-1.20;99.90;;;;;;5030277;28;20464;-64
2022/11/19 04:05:42;;;;;;;8.95;3.47;;;-1.20;99.90;;;;;;5026292;28;20041;-64
2022/11/19 04:08:08;;;;;;;6.32;4.05;;;-1.20;99.90;;;;;;5026817;28;20057;-63
2022/11/19 04:10:33;;;;;;;8.73;3.95;;;-1.30;99.90;;;;;;5050387;28;20072;-63
2022/11/19 04:12:59;;;;;;;8.52;4.45;;;-1.20;99.90;;;;;;5010744;28;20477;-64
2022/11/19 04:15:25;;;;;;;7.03;3.92;;;-1.30;99.90;;;;;;5027264;28;20119;-64
2022/11/19 04:17:50;;;;;;;5.88;3.92;;;-1.30;99.90;;;;;;5028481;28;20069;-64
2022/11/19 04:20:16;;;;;;;6.30;4.00;;;-1.30;99.90;;;;;;5027542;28;20487;-64
2022/11/19 04:22:41;;;;;;;9.57;4.80;;;-1.40;99.90;;;;;;5030753;28;20047;-63
2022/11/19 04:25:07;;;;;;;6.35;4.05;;;-1.40;99.90;;;;;;5026902;28;20262;-64
2022/11/19 04:27:33;;;;;;;7.45;4.13;;;-1.50;99.90;;;;;;5035067;28;20060;-63
2022/11/19 04:29:59;;;;;;;8.25;4.35;;;-1.50;99.90;;;;;;5027022;28;21062;-64
2022/11/19 04:32:24;;;;;;;7.88;4.10;;;-1.40;99.90;;;;;;5025602;28;20132;-63
2022/11/19 04:34:50;;;;;;;6.97;3.88;;;-1.50;99.90;;;;;;5024841;28;20697;-63
2022/11/19 04:37:15;;;;;;;8.98;4.40;;;-1.50;99.90;;;;;;5021439;28;20041;-64
2022/11/19 04:39:41;;;;;;;6.10;4.20;;;-1.40;99.90;;;;;;5022119;28;20700;-65
2022/11/19 04:42:06;;;;;;;6.63;4.63;;;-1.40;99.90;;;;;;5025211;28;20504;-64
2022/11/19 04:44:33;;;;;;;6.78;3.80;;;-1.40;99.90;;;;;;5026255;28;20488;-63
2022/11/19 04:46:58;;;;;;;8.00;4.25;;;-1.40;99.90;;;;;;5027451;28;20051;-63
2022/11/19 04:49:24;;;;;;;7.18;4.13;;;-1.40;99.90;;;;;;5023589;28;20041;-63
2022/11/19 04:51:50;;;;;;;9.30;4.55;;;-1.50;99.90;;;;;;5022449;28;20049;-64
2022/11/19 04:54:15;;;;;;;7.80;4.35;;;-1.50;99.90;;;;;;5025683;28;20032;-63
2022/11/19 04:56:41;;;;;;;9.80;3.90;;;-1.50;99.90;;;;;;5031584;28;20079;-64
2022/11/19 04:59:06;;;;;;;8.63;4.40;;;-1.50;99.90;;;;;;5023851;28;20104;-62
2022/11/19 05:01:32;;;;;;;7.15;4.53;;;-1.50;99.90;;;;;;5022400;28;20033;-64
2022/11/19 05:03:58;;;;;;;9.48;4.60;;;-1.50;99.90;;;;;;5024932;28;20501;-63
2022/11/19 05:06:23;;;;;;;10.57;4.70;;;-1.60;99.90;;;;;;5021026;28;20164;-64
2022/11/19 05:08:49;;;;;;;8.25;4.45;;;-1.50;99.90;;;;;;5025053;28;20053;-63
2022/11/19 05:11:15;;;;;;;7.88;4.80;;;-1.60;99.90;;;;;;5043342;28;20041;-63
2022/11/19 05:13:40;;;;;;;10.13;4.93;;;-1.50;99.90;;;;;;5020257;28;20120;-63
2022/11/19 05:16:06;;;;;;;8.25;4.38;;;-1.60;99.90;;;;;;5028857;28;20033;-63
2022/11/19 05:18:32;;;;;;;8.45;4.75;;;-1.60;99.90;;;;;;5037358;28;20048;-63
2022/11/19 05:20:57;;;;;;;9.25;5.47;;;-1.60;99.90;;;;;;5023756;28;20086;-64
2022/11/19 05:23:24;;;;;;;9.50;4.35;;;-1.60;99.90;;;;;;5028145;28;20037;-63
2022/11/19 05:25:50;;;;;;;9.80;5.75;;;-1.60;99.90;;;;;;5023496;28;20090;-63
2022/11/19 05:28:15;;;;;;;10.50;5.30;;;-1.60;99.90;;;;;;5026691;28;20049;-63
2022/11/19 05:30:41;;;;;;;8.52;4.85;;;-1.60;99.90;;;;;;5022090;28;20041;-63
2022/11/19 05:33:06;;;;;;;8.95;4.72;;;-1.60;99.90;;;;;;5025807;28;20033;-63
2022/11/19 05:35:32;;;;;;;8.35;4.97;;;-1.60;99.90;;;;;;5025357;28;20142;-62
2022/11/19 05:37:57;;;;;;;8.85;4.78;;;-1.60;99.90;;;;;;5049329;28;20385;-62
2022/11/19 05:40:23;;;;;;;8.10;5.30;;;-1.60;99.90;;;;;;5051804;28;20657;-63
2022/11/19 05:42:49;;;;;;;9.88;5.60;;;-1.70;99.90;;;;;;5049565;28;20594;-63
2022/11/19 05:45:15;;;;;;;11.23;4.95;;;-1.70;99.90;;;;;;5046525;28;20043;-64
2022/11/19 05:47:40;;;;;;;11.32;5.03;;;-1.70;99.90;;;;;;5047747;28;20048;-62
2022/11/19 05:50:06;;;;;;;11.32;5.40;;;-1.70;99.90;;;;;;5043175;28;20583;-63
2022/11/19 05:52:32;;;;;;;10.57;5.63;;;-1.70;99.90;;;;;;5041452;28;20040;-63
2022/11/19 05:54:58;;;;;;;9.90;5.30;;;-1.70;99.90;;;;;;5041638;28;20041;-63
2022/11/19 05:57:23;;;;;;;9.35;5.13;;;-1.70;99.90;;;;;;5041707;28;20059;-63
2022/11/19 05:59:49;;;;;;;8.60;4.93;;;-1.70;99.90;;;;;;5050265;28;20362;-63
2022/11/19 06:02:14;;;;;;;9.45;5.63;;;-1.70;99.90;;;;;;5061746;28;20115;-62
2022/11/19 06:04:40;;;;;;;8.05;4.28;;;-1.70;99.90;;;;;;5055205;28;20037;-62
2022/11/19 06:07:05;;;;;;;11.63;5.95;;;-1.80;99.90;;;;;;5044780;28;20060;-62
2022/11/19 06:09:31;;;;;;;12.32;6.18;;;-1.80;99.90;;;;;;5050447;28;20082;-63
2022/11/19 06:11:57;;;;;;;9.75;5.45;;;-1.90;99.90;;;;;;5046544;28;20044;-63
2022/11/19 06:14:24;;;;;;;11.90;5.68;;;-1.90;99.90;;;;;;5023048;28;20041;-61
2022/11/19 06:16:54;;;;;;;9.95;5.53;;;-1.90;99.90;;;;;;5034862;28;20404;-63
2022/11/19 06:19:20;;;;;;;13.10;6.47;;;-1.90;99.90;;;;;;5029568;28;20033;-63
2022/11/19 06:21:46;;;;;;;11.13;5.63;;;-1.90;99.90;;;;;;5028800;28;20044;-64
2022/11/19 06:24:12;;;;;;;11.88;5.70;;;-1.90;99.90;;;;;;5041956;28;20043;-63
2022/11/19 06:26:38;;;;;;;11.15;6.05;;;-1.90;99.90;;;;;;5034458;28;20059;-63
2022/11/19 06:29:04;;;;;;;10.98;5.68;;;-1.90;99.90;;;;;;5029914;28;20049;-63
2022/11/19 06:31:30;;;;;;;12.52;6.15;;;-1.90;99.90;;;;;;5029426;28;20037;-63
2022/11/19 06:33:55;;;;;;;10.70;6.50;;;-1.90;99.90;;;;;;5032497;28;20033;-63
2022/11/19 06:36:21;;;;;;;8.73;5.22;;;-1.90;99.90;;;;;;5035456;28;20087;-63
2022/11/19 06:38:47;;;;;;;10.52;5.88;;;-1.90;99.90;;;;;;5031446;28;20148;-64
2022/11/19 06:41:13;;;;;;;11.35;6.45;;;-1.90;99.90;;;;;;5039386;28;20052;-63
2022/11/19 06:43:39;;;;;;;12.18;6.25;;;-1.90;99.90;;;;;;5034551;28;20041;-63
2022/11/19 06:46:05;;;;;;;13.48;6.55;;;-1.90;99.90;;;;;;5036166;28;20041;-61
2022/11/19 06:48:30;;;;;;;11.57;5.93;;;-1.90;99.90;;;;;;5039821;28;20118;-63
2022/11/19 06:50:56;;;;;;;11.25;6.20;;;-1.90;99.90;;;;;;5034808;28;20542;-63
2022/11/19 06:53:21;;;;;;;10.95;6.55;;;-1.90;99.90;;;;;;5042550;28;20424;-63
2022/11/19 06:55:47;;;;;;;10.82;6.15;;;-2.00;99.90;;;;;;5030458;28;20099;-63
2022/11/19 06:58:14;;;;;;;12.68;6.10;;;-2.00;99.90;;;;;;5045259;28;20040;-63
2022/11/19 07:00:39;;;;;;;11.13;6.28;;;-2.00;99.90;;;;;;5031544;28;20044;-62
2022/11/19 07:03:05;;;;;;;11.48;6.00;;;-2.00;99.90;;;;;;5037052;28;20033;-63
2022/11/19 07:05:31;;;;;;;10.52;6.32;;;-2.00;99.90;;;;;;5038711;28;20041;-63
2022/11/19 07:07:56;;;;;;;11.65;6.13;;;-2.00;99.90;;;;;;5043653;28;20112;-64
2022/11/19 07:10:22;;;;;;;10.80;6.20;;;-2.00;99.90;;;;;;5029571;28;20059;-63
2022/11/19 07:12:48;;;;;;;12.05;6.53;;;-2.00;99.90;;;;;;5045682;28;20045;-62
2022/11/19 07:15:13;;;;;;;13.15;7.75;;;-2.00;99.90;;;;;;5035761;28;20045;-64
2022/11/19 07:17:39;;;;;;;14.77;6.85;;;-2.00;99.90;;;;;;5043032;28;20049;-62
2022/11/19 07:20:05;;;;;;;11.25;6.13;;;-2.10;99.90;;;;;;5029361;28;20113;-63
2022/11/19 07:22:31;;;;;;;10.95;6.10;;;-2.10;99.90;;;;;;5030034;28;20121;-64
2022/11/19 07:24:56;;;;;;;10.68;6.47;;;-2.10;99.90;;;;;;5039302;28;20164;-63
2022/11/19 07:27:22;;;;;;;12.98;6.78;;;-2.10;99.90;;;;;;5030777;28;20041;-63
2022/11/19 07:29:48;;;;;;;13.07;6.70;;;-2.10;99.90;;;;;;5028951;28;20063;-62
2022/11/19 07:32:13;;;;;;;13.38;6.15;;;-2.10;99.90;;;;;;5030435;28;20056;-63
2022/11/19 07:34:39;;;;;;;15.77;6.80;;;-2.10;99.90;;;;;;5040613;28;20087;-63
2022/11/19 07:37:04;;;;;;;13.45;6.82;;;-2.10;99.90;;;;;;5039877;28;20044;-62
2022/11/19 07:39:30;;;;;;;13.05;6.38;;;-2.10;99.90;;;;;;5048081;28;20033;-63
2022/11/19 07:44:40;;;;;;;15.00;7.13;;;-2.10;99.90;;;;;;5029593;28;20041;-63
2022/11/19 07:47:06;;;;;;;13.68;6.80;;;-2.00;99.90;;;;;;5039156;28;20049;-62
2022/11/19 07:49:32;;;;;;;14.65;7.13;;;-2.00;99.90;;;;;;5044057;28;20084;-63
2022/11/19 07:51:58;;;;;;;12.35;6.93;;;-2.00;99.90;;;;;;5048737;28;20032;-62
2022/11/19 07:54:23;;;;;;;12.75;7.07;;;-1.90;99.90;;;;;;5031599;28;20068;-63
2022/11/19 07:56:49;;;;;;;12.43;6.70;;;-1.90;99.90;;;;;;5028291;28;20045;-62
2022/11/19 07:59:15;;;;;;;13.20;6.47;;;-1.90;99.90;;;;;;5033618;28;20434;-62
2022/11/19 08:01:41;;;;;;;12.35;6.35;;;-1.90;99.90;;;;;;5028361;28;20033;-63
2022/11/19 08:04:06;;;;;;;13.20;7.18;;;-1.80;99.90;;;;;;5030437;28;20038;-62
2022/11/19 08:06:33;;;;;;;11.50;6.40;;;-1.80;99.90;;;;;;5054749;28;20068;-62
2022/11/19 08:08:59;;;;;;;13.80;6.88;;;-1.70;99.90;;;;;;5038145;28;20076;-62
2022/11/19 08:11:24;;;;;;;15.13;6.90;;;-1.60;99.90;;;;;;5037296;28;20053;-62
2022/11/19 08:13:51;;;;;;;12.52;6.70;;;-1.60;99.90;;;;;;5045866;28;20032;-62
2022/11/19 08:18:11;;;;;;;13.35;6.93;;;-1.60;99.90;;;;;;5049985;28;20039;-62
2022/11/19 08:19:08;;;;;;;12.55;6.43;;;-1.60;99.90;;;;;;5031357;28;20052;-62
2022/11/19 08:21:34;;;;;;;13.65;7.60;;;-1.50;99.90;;;;;;5037543;28;20044;-62
2022/11/19 08:24:00;;;;;;;12.60;6.93;;;-1.40;99.90;;;;;;5042184;28;20033;-62
2022/11/19 08:26:26;;;;;;;14.73;7.53;;;-1.40;99.90;;;;;;5031277;28;20503;-63
2022/11/19 08:28:52;;;;;;;16.65;8.23;;;-1.40;99.90;;;;;;5042275;28;20037;-62
2022/11/19 08:31:18;;;;;;;15.00;7.50;;;-1.40;99.90;;;;;;5048115;28;20035;-63
2022/11/19 08:33:44;;;;;;;17.00;8.05;;;-1.30;99.90;;;;;;5044454;28;20025;-62
2022/11/19 08:36:11;;;;;;;14.25;7.60;;;-1.30;99.90;;;;;;5031587;28;20075;-62
2022/11/19 08:38:36;;;;;;;16.08;7.85;;;-1.30;99.90;;;;;;5036390;28;20041;-63
2022/11/19 08:43:46;;;;;;;13.52;7.90;;;-1.20;99.90;;;;;;5044244;28;20400;-62
2022/11/19 08:46:12;;;;;;;13.10;7.03;;;-1.10;99.90;;;;;;5050794;28;20132;-63
2022/11/19 08:48:38;;;;;;;13.32;7.25;;;-1.10;99.90;;;;;;5047398;28;20033;-62
2022/11/19 08:51:09;;;;;;;13.77;7.78;;;-1.10;99.90;;;;;;5035299;28;20045;-62
2022/11/19 08:53:35;;;;;;;13.18;6.85;;;-1.00;99.90;;;;;;5034246;28;20096;-61
2022/11/19 08:56:00;;;;;;;14.38;7.43;;;-1.00;99.90;;;;;;5042691;28;20370;-62
2022/11/19 08:58:26;;;;;;;14.27;7.65;;;-0.90;99.90;;;;;;5030817;28;20196;-62
2022/11/19 09:00:53;;;;;;;13.13;6.78;;;-0.80;99.90;;;;;;5039696;28;20036;-61
2022/11/19 09:03:19;;;;;;;15.93;7.90;;;-0.80;99.90;;;;;;5044689;28;20132;-62
2022/11/19 09:05:44;;;;;;;13.48;7.50;;;-0.80;99.90;;;;;;5062581;28;20068;-63
2022/11/19 09:08:11;;;;;;;14.75;7.30;;;-0.70;99.90;;;;;;5031049;28;20059;-63
2022/11/19 09:10:37;;;;;;;14.27;6.90;;;-0.60;99.90;;;;;;5039676;28;20040;-62
2022/11/19 09:13:04;;;;;;;15.70;7.22;;;-0.60;99.90;;;;;;5032501;28;20536;-63
2022/11/19 09:15:30;;;;;;;12.27;7.65;;;-0.60;99.90;;;;;;5048086;28;20048;-61
2022/11/19 09:17:55;;;;;;;12.82;7.85;;;-0.60;99.90;;;;;;5030631;28;20120;-62
2022/11/19 09:20:21;;;;;;;10.43;7.07;;;-0.50;99.90;;;;;;5031039;28;20516;-62
2022/11/19 09:22:47;;;;;;;13.88;6.53;;;-0.50;99.90;;;;;;5032013;28;20080;-63
2022/11/19 09:25:13;;;;;;;14.40;7.25;;;-0.50;99.90;;;;;;5030507;28;20043;-62
2022/11/19 09:27:38;;;;;;;12.55;6.78;;;-0.40;99.90;;;;;;5033984;28;20710;-63
2022/11/19 09:30:06;;;;;;;11.48;6.85;;;-0.30;99.90;;;;;;5052131;28;20049;-62
2022/11/19 09:32:32;;;;;;;13.15;6.95;;;-0.30;99.90;;;;;;5049696;28;20055;-63
2022/11/19 09:34:58;;;;;;;12.75;7.03;;;-0.30;99.90;;;;;;5048692;28;20045;-63
2022/11/19 09:37:23;;;;;;;12.10;6.82;;;-0.30;99.90;;;;;;5032381;28;20087;-61
2022/11/19 09:39:49;;;;;;;12.32;6.35;;;-0.30;99.90;;;;;;5044529;28;20037;-63
2022/11/19 09:42:32;;;;;;;13.15;6.68;;;-0.30;99.90;;;;;;5033108;28;20040;-62
2022/11/19 09:45:01;;;;;;;13.88;7.15;;;-0.20;99.90;;;;;;5029728;28;20088;-62
2022/11/19 09:47:46;;;;;;;13.70;7.00;;;-0.20;99.90;;;;;;5032760;28;20041;-63
2022/11/19 09:50:19;;;;;;;15.02;7.32;;;-0.10;99.90;;;;;;5047990;28;20053;-63
2022/11/19 09:53:02;;;;;;;12.98;7.13;;;0.00;99.90;;;;;;5050989;28;20055;-63
2022/11/19 09:55:36;;;;;;;13.48;8.07;;;0.00;99.90;;;;;;5033393;28;20452;-63
2022/11/19 09:58:26;;;;;;;12.70;7.18;;;0.00;99.90;;;;;;5048125;28;20053;-62
2022/11/19 10:00:52;;;;;;;12.15;6.30;;;0.10;99.90;;;;;;5035837;28;20052;-62
2022/11/19 10:03:23;;;;;;;12.88;7.18;;;0.10;99.90;;;;;;5038995;28;20033;-64
2022/11/19 10:06:00;;;;;;;14.73;7.65;;;0.20;99.90;;;;;;5043667;28;20044;-64
2022/11/19 10:08:48;;;;;;;11.10;6.07;;;0.30;99.90;;;;;;5038904;28;20052;-62
2022/11/19 10:11:28;;;;;;;11.45;7.07;;;0.40;99.90;;;;;;5040330;28;20064;-62
2022/11/19 10:14:32;;;;;;;12.75;6.60;;;0.40;99.90;;;;;;5030229;28;20056;-62
2022/11/19 10:17:15;;;;;;;13.70;7.13;;;0.40;99.90;;;;;;5029995;28;20037;-61
2022/11/19 10:20:03;;;;;;;12.85;6.72;;;0.40;99.90;;;;;;5046392;28;20571;-63
2022/11/19 10:22:35;;;;;;;12.35;6.32;;;0.40;99.90;;;;;;5033481;28;20394;-62
2022/11/19 10:25:10;;;;;;;12.02;6.50;;;0.40;99.90;;;;;;5032086;28;20044;-63
2022/11/19 10:28:11;;;;;;;9.95;5.68;;;0.50;99.90;;;;;;5043493;28;20045;-63
2022/11/19 10:30:39;;;;;;;11.05;5.60;;;0.50;99.90;;;;;;5024883;28;20126;-63
2022/11/19 10:33:18;;;;;;;9.95;6.03;;;0.50;99.90;;;;;;5027461;28;20041;-62
2022/11/19 10:35:49;;;;;;;11.33;5.90;;;0.50;99.90;;;;;;5030813;28;20048;-62
2022/11/19 10:38:27;;;;;;;12.52;5.88;;;0.60;99.90;;;;;;5029012;28;20121;-62
2022/11/19 10:40:57;;;;;;;10.20;5.78;;;0.60;99.90;;;;;;5030679;28;20037;-63
2022/11/19 10:43:31;;;;;;;12.20;6.55;;;0.50;99.90;;;;;;5030865;28;20393;-63
2022/11/19 10:45:59;;;;;;;12.65;7.45;;;0.60;99.90;;;;;;5029850;28;20041;-63
2022/11/19 10:48:36;;;;;;;11.25;6.07;;;0.60;99.90;;;;;;5050611;28;20040;-63
2022/11/19 10:51:20;;;;;;;10.82;5.65;;;0.70;99.90;;;;;;5028562;28;20065;-63
2022/11/19 10:53:46;;;;;;;10.68;5.88;;;0.70;99.90;;;;;;5031693;28;20061;-63
2022/11/19 10:56:17;;;;;;;11.70;6.20;;;0.80;99.90;;;;;;5041216;28;20061;-63
2022/11/19 10:58:51;;;;;;;9.65;5.55;;;0.70;99.90;;;;;;5026779;28;20236;-63
2022/11/19 11:01:36;;;;;;;9.63;5.47;;;0.80;99.90;;;;;;5031054;28;20042;-63
2022/11/19 11:04:17;;;;;;;23.13;5.57;;;0.90;99.90;;;;;;5035012;28;20049;-62
2022/11/19 11:06:48;;;;;;;10.20;5.45;;;0.90;99.90;;;;;;5048116;28;20052;-63
2022/11/19 11:09:27;;;;;;;9.48;5.07;;;1.00;99.90;;;;;;5049598;28;20045;-63
2022/11/19 11:14:53;;;;;;;10.50;6.03;;;1.10;99.90;;;;;;5035751;28;20041;-62
2022/11/19 11:17:23;;;;;;;10.50;5.25;;;1.00;99.90;;;;;;5031184;28;20473;-63
2022/11/19 11:20:21;;;;;;;9.52;5.47;;;1.10;99.90;;;;;;5040624;28;20040;-63
2022/11/19 11:23:10;;;;;;;10.15;5.30;;;1.10;99.90;;;;;;5039266;28;20164;-64
2022/11/19 11:25:38;;;;;;;8.85;5.03;;;1.20;99.90;;;;;;5029501;28;20040;-62
2022/11/19 11:28:18;;;;;;;10.57;5.15;;;1.30;99.90;;;;;;5030664;28;20567;-63
2022/11/19 11:30:51;;;;;;;8.48;4.60;;;1.30;99.90;;;;;;5040885;28;20044;-63
2022/11/19 11:33:27;;;;;;;9.05;5.10;;;1.30;99.90;;;;;;5046197;28;20040;-63
2022/11/19 11:36:02;;;;;;;10.27;5.50;;;1.30;99.90;;;;;;5037588;28;20053;-63
2022/11/19 11:38:29;;;;;;;8.48;4.75;;;1.40;99.90;;;;;;5046183;28;20080;-64
2022/11/19 11:41:04;;;;;;;8.60;4.80;;;1.40;99.90;;;;;;5038298;28;20042;-63
2022/11/19 11:43:31;;;;;;;9.00;4.88;;;1.40;99.90;;;;;;5034946;28;20489;-63
2022/11/19 11:46:03;;;;;;;8.27;5.32;;;1.50;99.90;;;;;;5037400;28;20042;-64
2022/11/19 11:48:44;;;;;;;7.65;4.80;;;1.50;99.90;;;;;;5037696;28;20049;-63
2022/11/19 11:51:46;;;;;;;9.80;5.30;;;1.60;99.90;;;;;;5048310;28;20048;-63
2022/11/19 11:54:19;;;;;;;7.97;4.93;;;1.60;99.90;;;;;;4975946;28;20105;-63
2022/11/19 11:56:45;;;;;;;9.98;4.57;;;1.70;99.90;;;;;;5009984;28;20061;-63
2022/11/19 11:59:21;;;;;;;9.93;5.20;;;1.70;99.90;;;;;;5038406;28;20588;-63
2022/11/19 12:02:00;;;;;;;9.13;5.03;;;1.70;99.90;;;;;;5046959;28;20106;-63
2022/11/19 12:04:26;;;;;;;8.43;4.53;;;1.80;99.90;;;;;;5042061;28;20037;-63
2022/11/19 12:06:56;;;;;;;7.57;4.55;;;1.90;99.90;;;;;;5041056;28;20075;-64
2022/11/19 12:09:40;;;;;;;7.43;4.70;;;2.00;99.90;;;;;;5040320;28;20037;-64
2022/11/19 12:12:28;;;;;;;8.85;4.90;;;2.00;99.90;;;;;;5040848;28;20041;-62
2022/11/19 12:15:21;;;;;;;8.15;5.10;;;2.10;99.90;;;;;;5053813;28;20041;-64
2022/11/19 12:18:05;;;;;;;8.80;4.40;;;2.10;99.90;;;;;;5050450;28;20049;-63
2022/11/19 12:20:31;;;;;;;7.07;4.60;;;2.10;99.90;;;;;;5048712;28;20037;-63
2022/11/19 12:23:05;;;;;;;8.10;4.43;;;2.10;99.90;;;;;;5049213;28;20041;-63
2022/11/19 12:25:40;;;;;;;7.97;4.35;;;2.10;99.90;;;;;;5043371;28;20033;-63
2022/11/19 12:28:26;;;;;;;6.53;4.15;;;2.20;99.90;;;;;;5048183;28;20049;-63
2022/11/19 12:31:04;;;;;;;8.38;4.47;;;2.20;99.90;;;;;;5068769;28;20128;-63
2022/11/19 12:33:54;;;;;;;8.35;4.38;;;2.20;99.90;;;;;;5050990;28;20040;-64
2022/11/19 12:36:42;;;;;;;7.72;4.32;;;2.20;99.90;;;;;;5037163;28;20505;-63
2022/11/19 12:39:44;;;;;;;7.20;3.88;;;2.20;99.90;;;;;;5032708;28;20050;-63
2022/11/19 12:42:27;;;;;;;6.78;3.65;;;2.30;99.90;;;;;;5045154;28;20086;-64
2022/11/19 12:45:01;;;;;;;6.40;3.83;;;2.30;99.90;;;;;;5052608;28;20033;-62
2022/11/19 12:48:14;;;;;;;7.68;4.20;;;2.30;99.90;;;;;;5040665;28;20485;-63
2022/11/19 12:50:58;;;;;;;7.47;4.00;;;2.40;99.90;;;;;;5029422;28;20041;-63
2022/11/19 12:53:33;;;;;;;6.68;4.13;;;2.40;99.90;;;;;;5031237;28;20049;-63
2022/11/19 12:56:04;;;;;;;7.20;4.10;;;2.50;99.90;;;;;;5035904;28;20044;-63
2022/11/19 12:58:50;;;;;;;6.70;4.50;;;2.50;99.90;;;;;;5034161;28;20558;-63
2022/11/19 13:01:21;;;;;;;6.15;4.05;;;2.60;99.90;;;;;;5013811;28;20053;-64
2022/11/19 13:04:25;;;;;;;7.10;4.40;;;2.60;99.90;;;;;;5033137;28;20038;-64
2022/11/19 13:06:55;;;;;;;7.32;4.28;;;2.50;99.90;;;;;;5033150;28;20049;-63
2022/11/19 13:09:43;;;;;;;;;;;2.50;99.90;;;;;;5042939;28;20048;-63
2022/11/19 13:12:15;;;;;;;6.25;4.00;;;2.60;99.90;;;;;;5039015;28;19920;-62
2022/11/19 13:14:51;;;;;;;6.25;3.45;;;2.60;99.90;;;;;;5052881;28;20087;-63
2022/11/19 13:17:20;;;;;;;6.65;3.97;;;2.60;99.90;;;;;;5046979;28;20558;-63
2022/11/19 13:19:54;;;;;;;6.93;4.00;;;2.60;99.90;;;;;;5048887;28;20025;-63
2022/11/19 13:22:34;;;;;;;6.38;4.10;;;2.60;99.90;;;;;;5035533;28;20098;-63
2022/11/19 13:25:19;;;;;;;7.65;3.95;;;2.60;99.90;;;;;;5043491;28;20037;-63
2022/11/19 13:27:47;;;;;;;6.18;3.83;;;2.60;99.90;;;;;;5036005;28;20423;-63
2022/11/19 13:30:17;;;;;;;6.53;4.13;;;2.60;99.90;;;;;;5029575;28;20052;-64